MGGTMGSJ

Guest
Details From MGGT - La Aurora
To MGSJ - SAN JOSE
Flight Number -
Tags generated
Created
Modified
Stats Distance 44 nm / 81 km
Max Altitude 100 ft / 30 m
Waypoints 3
Social Downloads 1
Likes 0
Share VATSIM

Download

Looking for another format? Having issues loading an existing format? Contact us
Advertisement - Login to hide

Notes

Basic altitude profile: - Ascent Rate: 6500ft/min - Ascent Speed: 190kts - Cruise Altitude: 35000ft - Cruise Speed: 420kts - Descent Rate: 1500ft/min - Descent Speed: 250kts Options: - Use NATs: yes - Use PACOTS: yes - Use low airways: yes - Use high airways: yes

Route

MGGT AUR MGSJ

ID Type Via Altitude Latitude Longitude Leg Dist Tot Dist Heading (true) Name
O MGGT APT - 0 ft / 0 m 14.58327˚ -90.52747˚ - 0 nm - La Aurora
AUR VOR - 100 ft / 30 m 14.59106˚ -90.52625˚ 0 nm 0 nm 9° / 9° LA AURORA VOR-DME
O MGSJ APT - 0 ft / 0 m 13.93619˚ -90.83583˚ 43 nm 43 nm 205° / 205° SAN JOSE

Altitude Profile

Advertisement - Login to hide

MGGT

Details ICAO MGGT (GUA)
Name La Aurora
Region Guatemala
Timezone America/Guatemala (UTC-6.0)
Stats Elevation 4,952 ft / 1,509 m (AMSL)
Location 14.583272° -90.527473°
Runways 1
Magnetic Variation 1.069° E

METAR

MGGT 171900Z 36014KT CAVOK 23/12 Q1026 A3030

Decode

TAF

MGGT 171700Z 1718/1818 02012KT 9999 FEW018 SCT090 TX25/1720Z TN15/1812Z TEMPO 1718/1801 36016KT BKN018 BECMG 1801/1803 SCT016 TEMPO 1808/1815 BKN012 BECMG 1815/1817 02016KT SCT018

Decode

Departure Runways

ID Width Length Bearing (true) Bearing (mag) Surface Threshold Offset Overrun Length
01 196 ft / 60 m 9,841 ft / 3,000 m 17.29° 16.22° Asphalt 0 ft / 0 m 0 ft / 0 m
19 196 ft / 60 m 9,841 ft / 3,000 m 197.29° 196.22° Asphalt 722 ft / 220 m 0 ft / 0 m

MGSJ

Details ICAO MGSJ
Name SAN JOSE
Region Guatemala
Timezone America/Guatemala (UTC-6.0)
Stats Elevation 29 ft / 9 m (AMSL)
Location 13.936191° -90.835832°
Runways 1
Magnetic Variation 1.320° E

METAR

MGSJ 171900Z 20008KT 9000 SKC 33/15 Q1011 A2985 FU

Decode

TAF

MGSJ 171700Z 1718/1818 22008KT 8000 NSC TX33/1720Z TN20/1812Z TEMPO 1718/1801 26012KT FEW020 BECMG 1801/1803 00000KT CAVOK BECMG 1815/1817 20008KT 8000 FEW018

Decode

Destination Runways

ID Width Length Bearing (true) Bearing (mag) Surface Threshold Offset Overrun Length
15 150 ft / 46 m 6,639 ft / 2,024 m 156.87° 155.55° Asphalt 0 ft / 0 m 0 ft / 0 m
33 150 ft / 46 m 6,639 ft / 2,024 m 336.87° 335.55° Asphalt 0 ft / 0 m 0 ft / 0 m

Popular Alternatives